Weather at London Stansted Airport

Public forecast

Using degrees Celsius for public forecast. Weather courtesy of forecast.io.

Current aviation weather report (METAR) for London Stansted Airport

Retrieved 2020/11/28 18:20 UTC (11 minutes ago):

EGSS 281820Z AUTO 09006KT 2900 BR OVC003 08/08 Q1021

Aviation forecast (TAF) for London Stansted Airport

Retrieved 2020/11/28 18:00 UTC (31 minutes ago):

TAF EGSS 281659Z 2818/2924 04007KT 4000 BR BKN005 TEMPO 2818/2912 BKN003 PROB40 2822/2910 0300 FG BKN000 PROB40 2913/2918 7000 NSW BKN010 TEMPO 2918/2924 BKN003 PROB30 2920/2924 0300 FG BKN001